createdAt,value
2023-02-02T00:02:02.323Z,4.00
2023-02-02T00:04:38.686Z,3.93
2023-02-02T00:07:15.796Z,4.53
2023-02-02T00:09:50.734Z,3.67
2023-02-02T00:12:18.975Z,3.47
2023-02-02T00:14:53.780Z,4.20
2023-02-02T00:17:24.061Z,4.23
2023-02-02T00:19:58.588Z,3.70
2023-02-02T00:22:30.006Z,3.97
2023-02-02T00:25:04.685Z,3.73
2023-02-02T00:27:36.224Z,4.20
2023-02-02T00:30:11.700Z,4.70
2023-02-02T00:32:42.150Z,3.73
2023-02-02T00:35:17.916Z,3.90
2023-02-02T00:37:46.233Z,3.77
2023-02-02T00:40:23.905Z,3.63
2023-02-02T00:42:52.777Z,3.40
2023-02-02T00:45:26.767Z,4.10
2023-02-02T00:47:57.275Z,3.70
2023-02-02T00:50:35.808Z,3.67
2023-02-02T00:53:04.292Z,4.10
2023-02-02T00:55:39.692Z,4.27
2023-02-02T00:58:14.830Z,3.73
2023-02-02T01:00:43.566Z,3.60
2023-02-02T01:03:20.839Z,4.10
2023-02-02T01:05:56.445Z,4.00
2023-02-02T01:08:38.855Z,3.93
2023-02-02T01:11:07.210Z,3.87
2023-02-02T01:13:42.633Z,3.77
2023-02-02T01:16:12.191Z,4.03
2023-02-02T01:18:48.845Z,4.33
2023-02-02T01:21:17.446Z,4.60
2023-02-02T01:23:52.762Z,4.10
2023-02-02T01:26:21.718Z,4.20
2023-02-02T01:28:56.712Z,4.23
2023-02-02T01:31:25.768Z,3.83
2023-02-02T01:34:02.751Z,4.43
2023-02-02T01:36:31.482Z,3.77
2023-02-02T01:39:06.735Z,4.13
2023-02-02T01:41:35.326Z,3.87
2023-02-02T01:44:11.857Z,3.60
2023-02-02T01:46:46.893Z,4.00
2023-02-02T01:49:21.045Z,4.03
2023-02-02T01:51:59.700Z,3.83
2023-02-02T01:54:43.813Z,4.30
2023-02-02T01:57:19.120Z,4.77
2023-02-02T01:59:55.882Z,3.57
2023-02-02T02:02:34.575Z,4.87
2023-02-02T02:05:23.971Z,3.87
2023-02-02T02:08:01.791Z,4.10
2023-02-02T02:10:30.612Z,4.90
2023-02-02T02:13:00.101Z,3.87
2023-02-02T02:15:55.743Z,4.37
2023-02-02T02:18:40.738Z,4.00
2023-02-02T02:21:58.772Z,4.30
2023-02-02T02:25:29.699Z,4.07
2023-02-02T02:28:32.049Z,4.20
2023-02-02T02:31:37.190Z,4.13
2023-02-02T02:34:11.464Z,3.87
2023-02-02T02:36:57.938Z,4.17
2023-02-02T02:39:33.691Z,4.23
2023-02-02T02:42:14.951Z,4.03
2023-02-02T02:44:44.396Z,4.53
2023-02-02T02:47:19.982Z,3.87
2023-02-02T02:49:51.092Z,4.13
2023-02-02T02:52:25.747Z,3.73
2023-02-02T02:54:57.560Z,4.57
2023-02-02T02:57:58.796Z,3.90
2023-02-02T03:00:44.097Z,3.83
2023-02-02T03:03:37.849Z,3.80
2023-02-02T03:06:16.389Z,3.90
2023-02-02T03:08:55.774Z,4.07
2023-02-02T03:11:24.222Z,3.60
2023-02-02T03:13:59.843Z,4.30
2023-02-02T03:16:28.121Z,3.80
2023-02-02T03:19:04.813Z,3.70
2023-02-02T03:21:35.410Z,3.97
2023-02-02T03:24:10.986Z,3.13
2023-02-02T03:26:39.886Z,3.97
2023-02-02T03:29:14.790Z,3.80
2023-02-02T03:31:43.373Z,4.07
2023-02-02T03:34:17.973Z,3.67
2023-02-02T03:36:47.991Z,3.37
2023-02-02T03:39:22.941Z,3.97
2023-02-02T03:41:51.658Z,3.93
2023-02-02T03:44:26.789Z,4.07
2023-02-02T03:46:55.923Z,3.97
2023-02-02T03:49:31.015Z,3.90
2023-02-02T03:52:01.871Z,3.17
2023-02-02T03:54:37.017Z,3.10
2023-02-02T03:57:05.628Z,3.37
2023-02-02T03:59:40.833Z,3.50
2023-02-02T04:02:28.828Z,3.47
2023-02-02T04:05:03.826Z,3.70
2023-02-02T04:07:34.285Z,3.63
2023-02-02T04:10:08.874Z,3.37
2023-02-02T04:12:39.856Z,3.80
2023-02-02T04:15:16.257Z,3.77
2023-02-02T04:17:46.435Z,3.20
2023-02-02T04:20:21.916Z,3.47
2023-02-02T04:22:51.827Z,3.63
2023-02-02T04:25:27.278Z,3.90
2023-02-02T04:27:56.311Z,3.47
2023-02-02T04:30:31.111Z,3.40
2023-02-02T04:33:00.046Z,4.00
2023-02-02T04:35:35.172Z,4.03
2023-02-02T04:38:05.223Z,3.93
2023-02-02T04:40:39.894Z,3.73
2023-02-02T04:43:10.527Z,3.70
2023-02-02T04:45:45.972Z,4.07
2023-02-02T04:48:14.557Z,3.53
2023-02-02T04:50:49.061Z,3.77
2023-02-02T04:53:19.059Z,3.80
2023-02-02T04:55:53.953Z,3.70
2023-02-02T04:58:22.308Z,4.03
2023-02-02T05:00:57.072Z,3.17
2023-02-02T05:03:32.004Z,3.33
2023-02-02T05:06:10.979Z,4.17
2023-02-02T05:08:43.332Z,3.97
2023-02-02T05:11:19.878Z,3.43
2023-02-02T05:13:49.146Z,3.03
2023-02-02T05:16:27.028Z,3.00
2023-02-02T05:18:59.819Z,3.30
2023-02-02T05:21:34.882Z,3.80
2023-02-02T05:24:05.065Z,3.00
2023-02-02T05:26:40.108Z,3.50
2023-02-02T05:29:09.497Z,3.90
2023-02-02T05:31:45.109Z,3.23
2023-02-02T05:34:13.526Z,3.63
2023-02-02T05:36:48.004Z,3.33
2023-02-02T05:39:18.110Z,3.37
2023-02-02T05:41:54.978Z,2.90
2023-02-02T05:44:23.373Z,3.20
2023-02-02T05:46:58.102Z,2.80
2023-02-02T05:49:26.815Z,3.60
2023-02-02T05:52:05.918Z,3.20
2023-02-02T05:54:35.830Z,2.60
2023-02-02T05:57:10.988Z,3.10
2023-02-02T05:59:40.685Z,2.97
2023-02-02T06:02:15.954Z,3.27
2023-02-02T06:04:51.468Z,3.70
2023-02-02T06:07:25.943Z,3.40
2023-02-02T06:09:55.794Z,3.50
2023-02-02T06:12:30.919Z,3.23
2023-02-02T06:14:59.574Z,2.70
2023-02-02T06:17:37.856Z,3.30
2023-02-02T06:20:07.673Z,3.10
2023-02-02T06:22:44.957Z,3.50
2023-02-02T06:25:15.107Z,3.17
2023-02-02T06:27:51.940Z,3.03
2023-02-02T06:30:20.991Z,4.07
2023-02-02T06:32:55.915Z,3.10
2023-02-02T06:35:24.692Z,3.40
2023-02-02T06:38:00.115Z,3.40
2023-02-02T06:40:30.372Z,3.13
2023-02-02T06:43:06.171Z,3.10
2023-02-02T06:45:39.336Z,2.97
2023-02-02T06:48:18.131Z,2.93
2023-02-02T06:50:53.159Z,2.83
2023-02-02T06:53:23.358Z,3.63
2023-02-02T06:56:03.156Z,2.90
2023-02-02T06:58:32.759Z,3.20
2023-02-02T07:01:12.197Z,2.63
2023-02-02T07:03:56.168Z,3.40
2023-02-02T07:06:33.125Z,3.10
2023-02-02T07:09:03.515Z,3.17
2023-02-02T07:11:45.052Z,3.53
2023-02-02T07:14:14.638Z,3.50
2023-02-02T07:16:50.032Z,3.13
2023-02-02T07:19:18.628Z,3.47
2023-02-02T07:21:54.223Z,3.80
2023-02-02T07:24:25.238Z,3.00
2023-02-02T07:27:02.097Z,3.87
2023-02-02T07:29:30.776Z,2.93
2023-02-02T07:32:06.027Z,3.03
2023-02-02T07:34:34.657Z,3.93
2023-02-02T07:37:10.010Z,3.17
2023-02-02T07:39:43.436Z,3.27
2023-02-02T07:42:21.168Z,3.40
2023-02-02T07:44:49.909Z,3.27
2023-02-02T07:47:24.971Z,3.60
2023-02-02T07:49:53.423Z,3.23
2023-02-02T07:52:29.104Z,3.50
2023-02-02T07:55:12.565Z,3.60
2023-02-02T07:57:51.016Z,3.53
2023-02-02T08:00:20.595Z,4.00
2023-02-02T08:02:57.080Z,3.30
2023-02-02T08:05:34.987Z,3.50
2023-02-02T08:08:13.039Z,3.50
2023-02-02T08:10:41.712Z,3.10
2023-02-02T08:13:20.237Z,3.73
2023-02-02T08:15:49.309Z,3.57
2023-02-02T08:18:27.248Z,3.30
2023-02-02T08:20:55.999Z,3.07
2023-02-02T08:23:31.233Z,3.57
2023-02-02T08:26:07.926Z,3.10
2023-02-02T08:28:45.054Z,3.40
2023-02-02T08:31:16.285Z,3.13
2023-02-02T08:33:52.254Z,2.97
2023-02-02T08:36:22.793Z,3.13
2023-02-02T08:38:58.282Z,3.50
2023-02-02T08:41:26.811Z,3.23
2023-02-02T08:44:03.060Z,3.47
2023-02-02T08:46:32.032Z,2.60
2023-02-02T08:49:07.082Z,3.50
2023-02-02T08:51:35.607Z,2.80
2023-02-02T08:54:11.101Z,3.07
2023-02-02T08:56:39.854Z,2.90
2023-02-02T08:59:16.069Z,3.47
2023-02-02T09:01:46.323Z,3.20
2023-02-02T09:04:30.288Z,3.20
2023-02-02T09:06:58.978Z,3.10
2023-02-02T09:09:34.257Z,2.90
2023-02-02T09:12:02.824Z,3.03
2023-02-02T09:14:40.080Z,3.10
2023-02-02T09:17:08.572Z,2.70
2023-02-02T09:19:44.087Z,3.10
2023-02-02T09:22:12.657Z,3.27
2023-02-02T09:24:48.425Z,3.20
2023-02-02T09:27:16.968Z,3.07
2023-02-02T09:29:54.126Z,2.60
2023-02-02T09:32:22.666Z,2.90
2023-02-02T09:34:58.245Z,3.10
2023-02-02T09:37:26.872Z,2.50
2023-02-02T09:40:02.432Z,3.00
2023-02-02T09:42:46.677Z,2.83
2023-02-02T09:45:32.359Z,2.83
2023-02-02T09:48:10.791Z,2.47
2023-02-02T09:50:55.225Z,3.50
2023-02-02T09:53:53.002Z,2.80
2023-02-02T09:56:34.413Z,2.77
2023-02-02T09:59:18.765Z,3.27
2023-02-02T10:02:02.463Z,3.10
2023-02-02T10:04:47.144Z,3.80
2023-02-02T10:07:19.079Z,3.63
2023-02-02T10:09:59.649Z,2.70
2023-02-02T10:12:38.211Z,2.63
2023-02-02T10:15:24.606Z,2.60
2023-02-02T10:18:04.236Z,2.60
2023-02-02T10:20:53.060Z,2.37
2023-02-02T10:23:27.750Z,2.60
2023-02-02T10:26:12.133Z,2.23
2023-02-02T10:28:46.572Z,2.90
2023-02-02T10:31:44.288Z,2.17
2023-02-02T10:34:24.675Z,3.00
2023-02-02T10:37:14.194Z,2.60
2023-02-02T10:40:01.500Z,2.13
2023-02-02T10:42:45.388Z,2.57
2023-02-02T10:45:18.611Z,2.40
2023-02-02T10:47:55.353Z,2.87
2023-02-02T10:50:27.984Z,2.73
2023-02-02T10:53:11.168Z,2.40
2023-02-02T10:55:43.771Z,2.70
2023-02-02T10:58:31.321Z,2.53
2023-02-02T11:01:01.616Z,2.97
2023-02-02T11:03:45.188Z,2.80
2023-02-02T11:06:39.247Z,2.60
2023-02-02T11:09:21.483Z,2.03
2023-02-02T11:11:55.079Z,2.60
2023-02-02T11:14:45.027Z,2.87
2023-02-02T11:17:21.914Z,2.60
2023-02-02T11:19:58.207Z,2.37
2023-02-02T11:22:32.816Z,2.83
2023-02-02T11:25:10.367Z,2.93
2023-02-02T11:27:42.742Z,3.53
2023-02-02T11:30:33.249Z,2.13
2023-02-02T11:33:02.035Z,2.60
2023-02-02T11:35:38.272Z,2.67
2023-02-02T11:38:16.768Z,2.47
2023-02-02T11:40:53.410Z,2.50
2023-02-02T11:43:28.421Z,2.67
2023-02-02T11:46:06.300Z,2.13
2023-02-02T11:48:39.485Z,2.30
2023-02-02T11:51:16.435Z,2.40
2023-02-02T11:53:49.520Z,2.27
2023-02-02T11:56:28.341Z,2.10
2023-02-02T11:58:59.701Z,2.53
2023-02-02T12:01:36.346Z,1.90
2023-02-02T12:04:32.248Z,2.67
2023-02-02T12:07:26.287Z,2.20
2023-02-02T12:10:01.963Z,2.10
2023-02-02T12:12:51.955Z,2.17
2023-02-02T12:15:33.492Z,2.20
2023-02-02T12:18:36.399Z,2.80
2023-02-02T12:21:22.193Z,2.83
2023-02-02T12:24:07.443Z,2.10
2023-02-02T12:26:40.464Z,2.67
2023-02-02T12:29:27.513Z,2.43
2023-02-02T12:32:18.805Z,2.63
2023-02-02T12:35:05.300Z,2.60
2023-02-02T12:37:49.364Z,2.10
2023-02-02T12:40:51.233Z,2.60
2023-02-02T12:43:31.877Z,2.53
2023-02-02T12:46:21.412Z,2.23
2023-02-02T12:49:12.472Z,2.47
2023-02-02T12:52:12.606Z,3.03
2023-02-02T12:54:58.532Z,2.30
2023-02-02T12:57:44.264Z,2.30
2023-02-02T13:00:44.396Z,2.40
2023-02-02T13:03:34.977Z,2.33
2023-02-02T13:06:42.436Z,2.60
2023-02-02T13:09:17.815Z,1.97
2023-02-02T13:12:01.547Z,2.43
2023-02-02T13:14:34.190Z,2.50
2023-02-02T13:17:16.343Z,2.40
2023-02-02T13:19:48.671Z,2.43
2023-02-02T13:22:26.331Z,2.30
2023-02-02T13:25:05.367Z,2.30
2023-02-02T13:27:35.141Z,2.03
2023-02-02T13:30:18.304Z,2.40
2023-02-02T13:32:49.922Z,2.37
2023-02-02T13:35:29.534Z,2.50
2023-02-02T13:38:04.672Z,2.03
2023-02-02T13:40:44.490Z,2.10
2023-02-02T13:43:42.518Z,2.07
2023-02-02T13:46:20.931Z,2.23
2023-02-02T13:49:11.556Z,2.13
2023-02-02T13:51:54.834Z,2.10
2023-02-02T13:55:20.509Z,2.60
2023-02-02T13:58:25.039Z,2.10
2023-02-02T14:01:02.449Z,2.00
2023-02-02T14:03:43.872Z,2.37
2023-02-02T14:06:29.483Z,2.13
2023-02-02T14:09:00.535Z,2.20
2023-02-02T14:11:38.367Z,2.00
2023-02-02T14:14:29.288Z,1.90
2023-02-02T14:17:04.552Z,2.30
2023-02-02T14:19:53.193Z,2.30
2023-02-02T14:22:48.445Z,1.83
2023-02-02T14:26:06.814Z,2.20
2023-02-02T14:28:53.536Z,2.57
2023-02-02T14:31:44.870Z,2.10
2023-02-02T14:34:34.360Z,2.23
2023-02-02T14:37:31.207Z,1.70
2023-02-02T14:40:25.551Z,2.20
2023-02-02T14:43:23.711Z,2.03
2023-02-02T14:46:30.408Z,2.33
2023-02-02T14:49:19.620Z,2.40
2023-02-02T14:52:01.592Z,2.53
2023-02-02T14:54:38.705Z,2.70
2023-02-02T14:57:32.637Z,2.40
2023-02-02T15:00:02.415Z,2.50
2023-02-02T15:02:42.578Z,2.53
2023-02-02T15:05:51.067Z,2.53
2023-02-02T15:08:36.592Z,2.73
2023-02-02T15:11:28.594Z,2.33
2023-02-02T15:14:23.476Z,2.50
2023-02-02T15:16:53.908Z,2.53
2023-02-02T15:19:39.603Z,3.00
2023-02-02T15:22:26.893Z,2.67
2023-02-02T15:25:02.623Z,2.70
2023-02-02T15:27:33.333Z,3.13
2023-02-02T15:30:17.048Z,2.33
2023-02-02T15:32:47.755Z,2.50
2023-02-02T15:35:28.509Z,2.87
2023-02-02T15:38:00.863Z,2.57
2023-02-02T15:40:38.494Z,2.93
2023-02-02T15:43:09.627Z,3.60
2023-02-02T15:45:52.467Z,2.80
2023-02-02T15:48:24.063Z,2.93
2023-02-02T15:51:02.558Z,3.00
2023-02-02T15:53:35.036Z,3.27
2023-02-02T15:56:26.610Z,2.90
2023-02-02T15:58:58.739Z,3.20
2023-02-02T16:01:39.510Z,2.73
2023-02-02T16:04:18.998Z,3.00
2023-02-02T16:06:55.609Z,3.00
2023-02-02T16:09:28.810Z,3.33
2023-02-02T16:12:03.458Z,3.20
2023-02-02T16:14:34.492Z,3.23
2023-02-02T16:17:21.460Z,2.83
2023-02-02T16:19:52.115Z,2.93
2023-02-02T16:22:32.642Z,3.20
2023-02-02T16:25:04.399Z,3.20
2023-02-02T16:27:40.561Z,3.03
2023-02-02T16:30:11.674Z,2.80
2023-02-02T16:32:48.410Z,3.10
2023-02-02T16:35:32.915Z,3.17
2023-02-02T16:38:21.441Z,2.73
2023-02-02T16:40:49.982Z,3.00
2023-02-02T16:43:26.649Z,2.90
2023-02-02T16:45:57.618Z,2.93
2023-02-02T16:48:40.639Z,2.60
2023-02-02T16:51:25.819Z,3.10
2023-02-02T16:54:22.720Z,2.60
2023-02-02T16:57:00.863Z,2.53
2023-02-02T16:59:40.530Z,2.60
2023-02-02T17:02:22.746Z,2.40
2023-02-02T17:05:10.572Z,2.70
2023-02-02T17:07:50.657Z,2.87
2023-02-02T17:10:33.547Z,3.20
2023-02-02T17:13:03.497Z,2.90
2023-02-02T17:15:41.528Z,2.90
2023-02-02T17:18:11.178Z,2.87
2023-02-02T17:20:48.590Z,3.03
2023-02-02T17:23:20.102Z,2.93
2023-02-02T17:25:55.549Z,2.90
2023-02-02T17:28:26.482Z,2.70
2023-02-02T17:31:06.589Z,2.97
2023-02-02T17:33:36.901Z,3.07
2023-02-02T17:36:14.727Z,3.20
2023-02-02T17:38:44.867Z,3.20
2023-02-02T17:41:20.536Z,2.77
2023-02-02T17:43:49.144Z,2.87
2023-02-02T17:46:24.813Z,2.67
2023-02-02T17:48:53.612Z,2.83
2023-02-02T17:51:30.915Z,2.80
2023-02-02T17:54:00.643Z,2.80
2023-02-02T17:56:36.708Z,3.00
2023-02-02T17:59:05.637Z,3.27
2023-02-02T18:01:41.841Z,3.20
2023-02-02T18:04:21.085Z,3.10
2023-02-02T18:06:57.563Z,3.30
2023-02-02T18:09:26.355Z,3.40
2023-02-02T18:12:01.676Z,5.60
2023-02-02T18:14:30.438Z,3.53
2023-02-02T18:17:05.749Z,5.00
2023-02-02T18:19:34.271Z,4.40
2023-02-02T18:22:12.567Z,3.77
2023-02-02T18:24:40.885Z,2.97
2023-02-02T18:27:16.743Z,3.10
2023-02-02T18:29:45.895Z,3.43
2023-02-02T18:32:21.637Z,2.87
2023-02-02T18:34:55.114Z,2.80
2023-02-02T18:37:32.624Z,2.93
2023-02-02T18:40:01.091Z,2.67
2023-02-02T18:42:39.662Z,3.00
2023-02-02T18:45:09.354Z,3.10
2023-02-02T18:47:45.759Z,2.90
2023-02-02T18:50:14.871Z,3.07
2023-02-02T18:52:51.655Z,3.17
2023-02-02T18:55:20.170Z,3.00
2023-02-02T18:57:55.787Z,2.80
2023-02-02T19:00:24.595Z,3.10
2023-02-02T19:02:59.614Z,2.80
2023-02-02T19:06:04.921Z,3.10
2023-02-02T19:08:41.744Z,3.53
2023-02-02T19:11:16.114Z,2.70
2023-02-02T19:13:51.840Z,3.47
2023-02-02T19:16:26.058Z,3.07
2023-02-02T19:19:04.668Z,3.33
2023-02-02T19:21:33.600Z,3.47
2023-02-02T19:24:10.634Z,3.00
2023-02-02T19:26:42.534Z,2.97
2023-02-02T19:29:24.652Z,3.50
2023-02-02T19:31:54.747Z,3.67
2023-02-02T19:34:31.782Z,3.00
2023-02-02T19:37:00.915Z,3.43
2023-02-02T19:39:38.837Z,3.47
2023-02-02T19:42:13.000Z,3.27
2023-02-02T19:44:48.715Z,3.33
2023-02-02T19:47:24.733Z,3.57
2023-02-02T19:49:59.855Z,3.40
2023-02-02T19:52:28.542Z,3.50
2023-02-02T19:55:04.733Z,3.77
2023-02-02T19:57:38.685Z,3.30
2023-02-02T20:00:28.169Z,4.20
2023-02-02T20:03:02.818Z,3.40
2023-02-02T20:05:42.857Z,3.63
2023-02-02T20:08:26.396Z,3.87
2023-02-02T20:11:05.746Z,3.70
2023-02-02T20:13:40.359Z,3.80
2023-02-02T20:16:19.706Z,3.77
2023-02-02T20:18:53.908Z,3.60
2023-02-02T20:21:45.655Z,4.03
2023-02-02T20:24:18.692Z,3.70
2023-02-02T20:26:56.042Z,4.33
2023-02-02T20:29:27.380Z,4.10
2023-02-02T20:32:04.711Z,4.10
2023-02-02T20:34:36.744Z,3.43
2023-02-02T20:37:24.707Z,3.20
2023-02-02T20:39:56.425Z,3.67
2023-02-02T20:42:33.757Z,3.30
2023-02-02T20:45:02.372Z,3.30
2023-02-02T20:47:37.703Z,3.40
2023-02-02T20:50:07.752Z,3.37
2023-02-02T20:52:42.850Z,3.40
2023-02-02T20:55:11.702Z,3.80
2023-02-02T20:57:48.917Z,3.80
2023-02-02T21:00:21.529Z,3.23
2023-02-02T21:02:58.738Z,3.33
2023-02-02T21:05:46.706Z,3.60
2023-02-02T21:08:21.815Z,3.20
2023-02-02T21:10:56.912Z,3.87
2023-02-02T21:13:27.080Z,3.30
2023-02-02T21:15:55.539Z,3.30
2023-02-02T21:18:30.904Z,3.60
2023-02-02T21:20:59.689Z,3.27
2023-02-02T21:23:35.979Z,2.77
2023-02-02T21:26:10.836Z,3.30
2023-02-02T21:28:41.163Z,3.67
2023-02-02T21:31:10.385Z,3.57
2023-02-02T21:33:45.804Z,2.90
2023-02-02T21:36:29.646Z,3.17
2023-02-02T21:39:09.924Z,3.43
2023-02-02T21:41:45.799Z,2.73
2023-02-02T21:44:20.044Z,2.80
2023-02-02T21:46:57.715Z,2.80
2023-02-02T21:49:27.947Z,2.40
2023-02-02T21:52:05.948Z,3.30
2023-02-02T21:54:39.145Z,2.80
2023-02-02T21:57:22.883Z,2.70
2023-02-02T21:59:56.912Z,3.07
2023-02-02T22:02:47.027Z,2.50
2023-02-02T22:05:40.793Z,2.40
2023-02-02T22:08:27.738Z,2.97
2023-02-02T22:10:56.375Z,3.23
2023-02-02T22:13:33.113Z,2.90
2023-02-02T22:16:04.066Z,3.20
2023-02-02T22:18:43.846Z,2.50
2023-02-02T22:21:15.473Z,2.90
2023-02-02T22:23:50.814Z,2.70
2023-02-02T22:26:32.698Z,2.83
2023-02-02T22:29:07.953Z,2.80
2023-02-02T22:31:41.090Z,3.07
2023-02-02T22:34:15.955Z,3.03
2023-02-02T22:36:45.953Z,3.00
2023-02-02T22:39:20.979Z,3.57
2023-02-02T22:41:49.333Z,2.80
2023-02-02T22:44:23.775Z,2.70
2023-02-02T22:46:53.704Z,2.80
2023-02-02T22:49:28.776Z,2.80
2023-02-02T22:51:57.710Z,2.93
2023-02-02T22:54:32.862Z,2.70
2023-02-02T22:57:01.553Z,2.70
2023-02-02T22:59:36.909Z,2.83
2023-02-02T23:02:07.152Z,2.67
2023-02-02T23:04:42.019Z,2.50
2023-02-02T23:07:17.311Z,2.50
2023-02-02T23:09:51.998Z,2.83
2023-02-02T23:12:20.539Z,3.10
2023-02-02T23:14:55.794Z,3.23
2023-02-02T23:17:25.912Z,2.83
2023-02-02T23:20:01.010Z,2.60
2023-02-02T23:22:29.523Z,2.73
2023-02-02T23:25:05.023Z,2.90
2023-02-02T23:27:33.859Z,2.73
2023-02-02T23:30:08.875Z,2.73
2023-02-02T23:32:38.831Z,2.77
2023-02-02T23:35:14.892Z,3.03
2023-02-02T23:37:43.533Z,2.97
2023-02-02T23:40:19.906Z,3.13
2023-02-02T23:42:48.532Z,2.60
2023-02-02T23:45:24.032Z,2.90
2023-02-02T23:47:53.927Z,2.40
2023-02-02T23:50:29.086Z,2.57
2023-02-02T23:52:57.975Z,2.83
2023-02-02T23:55:33.076Z,2.90
2023-02-02T23:58:02.199Z,2.30
